sensor_id;sensor_type;location;lat;lon;timestamp;temperature;humidity
80380;DHT22;69690;48.158;17.134;2023-07-20T00:05:00;25.10;48.50
80380;DHT22;69690;48.158;17.134;2023-07-20T00:10:01;25.30;48.00
80380;DHT22;69690;48.158;17.134;2023-07-20T00:15:03;25.30;47.60
80380;DHT22;69690;48.158;17.134;2023-07-20T00:20:05;25.50;47.30
80380;DHT22;69690;48.158;17.134;2023-07-20T00:25:07;25.40;47.30
80380;DHT22;69690;48.158;17.134;2023-07-20T00:30:09;25.40;47.20
80380;DHT22;69690;48.158;17.134;2023-07-20T00:35:11;25.30;47.60
80380;DHT22;69690;48.158;17.134;2023-07-20T00:40:13;25.10;48.00
80380;DHT22;69690;48.158;17.134;2023-07-20T00:45:14;25.00;48.40
80380;DHT22;69690;48.158;17.134;2023-07-20T00:50:15;24.90;48.80
80380;DHT22;69690;48.158;17.134;2023-07-20T00:55:18;24.70;49.40
80380;DHT22;69690;48.158;17.134;2023-07-20T01:00:20;24.60;49.90
80380;DHT22;69690;48.158;17.134;2023-07-20T01:05:27;24.40;50.50
80380;DHT22;69690;48.158;17.134;2023-07-20T01:10:51;24.30;51.20
80380;DHT22;69690;48.158;17.134;2023-07-20T01:16:01;24.10;52.10
80380;DHT22;69690;48.158;17.134;2023-07-20T01:21:06;24.10;52.40
80380;DHT22;69690;48.158;17.134;2023-07-20T01:26:33;24.30;51.20
80380;DHT22;69690;48.158;17.134;2023-07-20T01:31:44;24.50;49.80
80380;DHT22;69690;48.158;17.134;2023-07-20T01:36:46;24.70;49.40
80380;DHT22;69690;48.158;17.134;2023-07-20T01:41:48;24.80;48.50
80380;DHT22;69690;48.158;17.134;2023-07-20T01:46:50;25.00;47.90
80380;DHT22;69690;48.158;17.134;2023-07-20T01:51:51;25.10;48.10
80380;DHT22;69690;48.158;17.134;2023-07-20T01:56:52;25.30;47.50
80380;DHT22;69690;48.158;17.134;2023-07-20T02:01:54;25.10;48.20
80380;DHT22;69690;48.158;17.134;2023-07-20T02:06:55;25.00;48.80
80380;DHT22;69690;48.158;17.134;2023-07-20T02:11:57;24.80;49.50
80380;DHT22;69690;48.158;17.134;2023-07-20T02:16:58;24.70;49.70
80380;DHT22;69690;48.158;17.134;2023-07-20T02:22:01;24.70;49.30
80380;DHT22;69690;48.158;17.134;2023-07-20T02:27:02;24.20;50.50
80380;DHT22;69690;48.158;17.134;2023-07-20T02:32:04;24.00;51.20
80380;DHT22;69690;48.158;17.134;2023-07-20T02:37:06;23.90;51.60
80380;DHT22;69690;48.158;17.134;2023-07-20T02:42:07;23.80;51.60
80380;DHT22;69690;48.158;17.134;2023-07-20T02:47:09;23.70;51.40
80380;DHT22;69690;48.158;17.134;2023-07-20T02:52:10;23.60;51.50
80380;DHT22;69690;48.158;17.134;2023-07-20T02:57:12;23.60;52.10
80380;DHT22;69690;48.158;17.134;2023-07-20T03:02:13;23.50;52.60
80380;DHT22;69690;48.158;17.134;2023-07-20T03:07:14;23.30;53.40
80380;DHT22;69690;48.158;17.134;2023-07-20T03:12:18;23.20;53.90
80380;DHT22;69690;48.158;17.134;2023-07-20T03:17:19;23.10;54.30
80380;DHT22;69690;48.158;17.134;2023-07-20T03:22:21;23.00;54.50
80380;DHT22;69690;48.158;17.134;2023-07-20T03:27:22;23.00;54.70
80380;DHT22;69690;48.158;17.134;2023-07-20T03:32:24;23.20;54.20
80380;DHT22;69690;48.158;17.134;2023-07-20T03:37:25;23.30;54.00
80380;DHT22;69690;48.158;17.134;2023-07-20T03:42:27;23.30;54.20
80380;DHT22;69690;48.158;17.134;2023-07-20T03:47:48;23.10;54.90
80380;DHT22;69690;48.158;17.134;2023-07-20T03:52:50;22.90;55.70
80380;DHT22;69690;48.158;17.134;2023-07-20T03:57:51;22.70;56.00
80380;DHT22;69690;48.158;17.134;2023-07-20T04:02:52;22.70;55.60
80380;DHT22;69690;48.158;17.134;2023-07-20T04:07:54;22.70;55.00
80380;DHT22;69690;48.158;17.134;2023-07-20T04:12:56;22.90;54.40
80380;DHT22;69690;48.158;17.134;2023-07-20T04:17:57;22.90;54.30
80380;DHT22;69690;48.158;17.134;2023-07-20T04:23:00;22.90;53.70
80380;DHT22;69690;48.158;17.134;2023-07-20T04:28:01;23.10;53.20
80380;DHT22;69690;48.158;17.134;2023-07-20T04:33:03;23.20;53.30
80380;DHT22;69690;48.158;17.134;2023-07-20T04:38:05;23.20;53.10
80380;DHT22;69690;48.158;17.134;2023-07-20T04:43:06;23.20;53.10
80380;DHT22;69690;48.158;17.134;2023-07-20T04:48:12;23.30;52.90
80380;DHT22;69690;48.158;17.134;2023-07-20T04:53:15;23.30;52.90
80380;DHT22;69690;48.158;17.134;2023-07-20T04:58:18;23.20;53.10
80380;DHT22;69690;48.158;17.134;2023-07-20T05:03:20;23.20;53.60
80380;DHT22;69690;48.158;17.134;2023-07-20T05:08:22;23.20;53.00
80380;DHT22;69690;48.158;17.134;2023-07-20T05:13:23;23.20;53.10
80380;DHT22;69690;48.158;17.134;2023-07-20T05:18:24;23.20;52.40
80380;DHT22;69690;48.158;17.134;2023-07-20T05:23:26;23.20;52.00
80380;DHT22;69690;48.158;17.134;2023-07-20T05:28:28;23.20;51.30
80380;DHT22;69690;48.158;17.134;2023-07-20T05:33:29;23.20;51.00
80380;DHT22;69690;48.158;17.134;2023-07-20T05:38:31;23.40;50.90
80380;DHT22;69690;48.158;17.134;2023-07-20T05:43:33;23.50;50.40
80380;DHT22;69690;48.158;17.134;2023-07-20T05:48:34;23.50;50.10
80380;DHT22;69690;48.158;17.134;2023-07-20T05:53:36;23.60;50.30
80380;DHT22;69690;48.158;17.134;2023-07-20T05:58:37;23.50;50.20
80380;DHT22;69690;48.158;17.134;2023-07-20T06:03:39;23.60;49.70
80380;DHT22;69690;48.158;17.134;2023-07-20T06:08:40;23.60;50.30
80380;DHT22;69690;48.158;17.134;2023-07-20T06:13:41;23.50;50.60
80380;DHT22;69690;48.158;17.134;2023-07-20T06:18:44;23.40;50.90
80380;DHT22;69690;48.158;17.134;2023-07-20T06:23:46;23.40;51.40
80380;DHT22;69690;48.158;17.134;2023-07-20T06:28:47;23.50;51.30
80380;DHT22;69690;48.158;17.134;2023-07-20T06:33:49;23.70;50.60
80380;DHT22;69690;48.158;17.134;2023-07-20T06:38:50;23.90;50.30
80380;DHT22;69690;48.158;17.134;2023-07-20T06:43:53;24.00;49.50
80380;DHT22;69690;48.158;17.134;2023-07-20T06:48:58;24.20;49.80
80380;DHT22;69690;48.158;17.134;2023-07-20T06:54:00;24.30;48.20
80380;DHT22;69690;48.158;17.134;2023-07-20T06:59:04;24.30;48.40
80380;DHT22;69690;48.158;17.134;2023-07-20T07:04:05;24.30;48.40
80380;DHT22;69690;48.158;17.134;2023-07-20T07:09:07;24.30;47.80
80380;DHT22;69690;48.158;17.134;2023-07-20T07:14:09;24.30;47.60
80380;DHT22;69690;48.158;17.134;2023-07-20T07:19:10;24.50;46.80
80380;DHT22;69690;48.158;17.134;2023-07-20T07:24:11;24.60;47.10
80380;DHT22;69690;48.158;17.134;2023-07-20T07:29:12;24.80;46.20
80380;DHT22;69690;48.158;17.134;2023-07-20T07:34:14;25.00;45.80
80380;DHT22;69690;48.158;17.134;2023-07-20T07:39:17;25.20;45.30
80380;DHT22;69690;48.158;17.134;2023-07-20T07:44:18;25.30;45.50
80380;DHT22;69690;48.158;17.134;2023-07-20T07:49:20;25.40;45.30
80380;DHT22;69690;48.158;17.134;2023-07-20T07:54:21;25.30;45.00
80380;DHT22;69690;48.158;17.134;2023-07-20T07:59:22;25.30;45.00
80380;DHT22;69690;48.158;17.134;2023-07-20T08:04:23;25.20;45.10
80380;DHT22;69690;48.158;17.134;2023-07-20T08:09:25;25.40;45.10
80380;DHT22;69690;48.158;17.134;2023-07-20T08:14:30;25.40;45.40
80380;DHT22;69690;48.158;17.134;2023-07-20T08:19:31;25.50;45.10
80380;DHT22;69690;48.158;17.134;2023-07-20T08:24:32;25.70;45.20
80380;DHT22;69690;48.158;17.134;2023-07-20T08:29:35;25.80;45.00
80380;DHT22;69690;48.158;17.134;2023-07-20T08:34:37;25.80;45.10
80380;DHT22;69690;48.158;17.134;2023-07-20T08:39:38;26.00;44.30
80380;DHT22;69690;48.158;17.134;2023-07-20T08:44:41;26.10;43.90
80380;DHT22;69690;48.158;17.134;2023-07-20T08:49:44;26.00;44.20
80380;DHT22;69690;48.158;17.134;2023-07-20T08:54:46;25.90;43.60
80380;DHT22;69690;48.158;17.134;2023-07-20T08:59:48;26.20;43.20
80380;DHT22;69690;48.158;17.134;2023-07-20T09:04:53;26.30;43.20
80380;DHT22;69690;48.158;17.134;2023-07-20T09:09:57;26.50;43.60
80380;DHT22;69690;48.158;17.134;2023-07-20T09:14:58;26.80;42.50
80380;DHT22;69690;48.158;17.134;2023-07-20T09:20:04;26.70;42.30
80380;DHT22;69690;48.158;17.134;2023-07-20T09:25:12;26.80;42.70
80380;DHT22;69690;48.158;17.134;2023-07-20T09:30:16;26.80;42.60
80380;DHT22;69690;48.158;17.134;2023-07-20T09:35:20;27.30;42.10
80380;DHT22;69690;48.158;17.134;2023-07-20T09:40:22;27.50;41.00
80380;DHT22;69690;48.158;17.134;2023-07-20T09:45:23;27.70;40.00
80380;DHT22;69690;48.158;17.134;2023-07-20T09:50:24;27.70;39.60
80380;DHT22;69690;48.158;17.134;2023-07-20T09:55:26;27.40;40.30
80380;DHT22;69690;48.158;17.134;2023-07-20T10:00:28;27.30;40.90
80380;DHT22;69690;48.158;17.134;2023-07-20T10:05:33;27.30;40.70
80380;DHT22;69690;48.158;17.134;2023-07-20T10:10:36;27.80;40.10
80380;DHT22;69690;48.158;17.134;2023-07-20T10:15:58;31.90;35.20
80380;DHT22;69690;48.158;17.134;2023-07-20T10:21:05;33.80;32.40
80380;DHT22;69690;48.158;17.134;2023-07-20T10:26:08;31.50;34.40
80380;DHT22;69690;48.158;17.134;2023-07-20T10:31:12;30.10;36.50
80380;DHT22;69690;48.158;17.134;2023-07-20T10:36:15;29.50;37.90
80380;DHT22;69690;48.158;17.134;2023-07-20T10:46:44;28.20;41.20
80380;DHT22;69690;48.158;17.134;2023-07-20T10:51:48;29.40;38.70
80380;DHT22;69690;48.158;17.134;2023-07-20T10:56:50;31.40;36.80
80380;DHT22;69690;48.158;17.134;2023-07-20T11:01:55;33.90;32.60
80380;DHT22;69690;48.158;17.134;2023-07-20T11:07:00;34.40;31.90
80380;DHT22;69690;48.158;17.134;2023-07-20T11:12:11;35.40;29.90
80380;DHT22;69690;48.158;17.134;2023-07-20T11:17:15;32.90;32.30
80380;DHT22;69690;48.158;17.134;2023-07-20T11:22:21;32.10;34.80
80380;DHT22;69690;48.158;17.134;2023-07-20T11:27:22;33.80;32.10
80380;DHT22;69690;48.158;17.134;2023-07-20T11:32:24;35.10;30.20
80380;DHT22;69690;48.158;17.134;2023-07-20T11:37:25;33.50;31.50
80380;DHT22;69690;48.158;17.134;2023-07-20T11:42:26;32.40;33.90
80380;DHT22;69690;48.158;17.134;2023-07-20T11:47:29;34.50;32.70
80380;DHT22;69690;48.158;17.134;2023-07-20T11:52:31;35.80;31.10
80380;DHT22;69690;48.158;17.134;2023-07-20T11:57:32;36.10;29.50
80380;DHT22;69690;48.158;17.134;2023-07-20T12:02:34;36.00;29.00
80380;DHT22;69690;48.158;17.134;2023-07-20T12:07:36;34.30;30.10
80380;DHT22;69690;48.158;17.134;2023-07-20T12:12:38;33.90;31.40
80380;DHT22;69690;48.158;17.134;2023-07-20T12:17:45;34.90;30.50
80380;DHT22;69690;48.158;17.134;2023-07-20T12:22:47;34.60;30.30
80380;DHT22;69690;48.158;17.134;2023-07-20T12:27:49;35.10;30.90
80380;DHT22;69690;48.158;17.134;2023-07-20T12:32:50;36.00;30.10
80380;DHT22;69690;48.158;17.134;2023-07-20T12:37:52;36.00;30.00
80380;DHT22;69690;48.158;17.134;2023-07-20T12:42:55;35.60;30.00
80380;DHT22;69690;48.158;17.134;2023-07-20T12:47:56;35.20;30.30
80380;DHT22;69690;48.158;17.134;2023-07-20T12:52:57;34.30;31.60
80380;DHT22;69690;48.158;17.134;2023-07-20T12:57:59;34.10;32.10
80380;DHT22;69690;48.158;17.134;2023-07-20T13:03:00;34.00;31.80
80380;DHT22;69690;48.158;17.134;2023-07-20T13:08:05;33.90;32.60
80380;DHT22;69690;48.158;17.134;2023-07-20T13:13:07;32.70;33.20
80380;DHT22;69690;48.158;17.134;2023-07-20T13:18:09;32.90;32.50
80380;DHT22;69690;48.158;17.134;2023-07-20T13:23:10;33.10;31.80
80380;DHT22;69690;48.158;17.134;2023-07-20T13:28:11;33.40;31.60
80380;DHT22;69690;48.158;17.134;2023-07-20T13:33:13;33.70;31.40
80380;DHT22;69690;48.158;17.134;2023-07-20T13:38:14;33.50;31.70
80380;DHT22;69690;48.158;17.134;2023-07-20T13:43:16;33.00;32.50
80380;DHT22;69690;48.158;17.134;2023-07-20T13:48:17;32.90;33.10
80380;DHT22;69690;48.158;17.134;2023-07-20T13:53:21;33.40;32.40
80380;DHT22;69690;48.158;17.134;2023-07-20T13:58:23;33.10;33.00
80380;DHT22;69690;48.158;17.134;2023-07-20T14:03:27;32.80;33.20
80380;DHT22;69690;48.158;17.134;2023-07-20T14:08:28;32.70;33.50
80380;DHT22;69690;48.158;17.134;2023-07-20T14:13:30;32.30;33.30
80380;DHT22;69690;48.158;17.134;2023-07-20T14:18:33;32.00;33.30
80380;DHT22;69690;48.158;17.134;2023-07-20T14:23:34;31.80;33.40
80380;DHT22;69690;48.158;17.134;2023-07-20T14:28:37;31.70;33.50
80380;DHT22;69690;48.158;17.134;2023-07-20T14:33:39;31.70;33.00
80380;DHT22;69690;48.158;17.134;2023-07-20T14:38:40;31.80;33.20
80380;DHT22;69690;48.158;17.134;2023-07-20T14:43:41;31.60;33.70
80380;DHT22;69690;48.158;17.134;2023-07-20T14:48:42;31.40;32.80
80380;DHT22;69690;48.158;17.134;2023-07-20T14:53:44;31.20;33.60
80380;DHT22;69690;48.158;17.134;2023-07-20T14:58:45;31.20;33.90
80380;DHT22;69690;48.158;17.134;2023-07-20T15:03:46;31.10;33.20
80380;DHT22;69690;48.158;17.134;2023-07-20T15:08:48;30.90;34.00
80380;DHT22;69690;48.158;17.134;2023-07-20T15:13:49;31.10;34.50
80380;DHT22;69690;48.158;17.134;2023-07-20T15:18:50;31.30;34.20
80380;DHT22;69690;48.158;17.134;2023-07-20T15:23:51;31.00;33.90
80380;DHT22;69690;48.158;17.134;2023-07-20T15:28:52;30.70;34.00
80380;DHT22;69690;48.158;17.134;2023-07-20T15:33:54;30.60;34.50
80380;DHT22;69690;48.158;17.134;2023-07-20T15:38:55;30.70;34.40
80380;DHT22;69690;48.158;17.134;2023-07-20T15:43:56;30.60;33.70
80380;DHT22;69690;48.158;17.134;2023-07-20T15:48:58;30.40;34.40
80380;DHT22;69690;48.158;17.134;2023-07-20T15:53:59;30.20;35.20
80380;DHT22;69690;48.158;17.134;2023-07-20T15:59:00;30.30;34.80
80380;DHT22;69690;48.158;17.134;2023-07-20T16:04:02;30.20;34.90
80380;DHT22;69690;48.158;17.134;2023-07-20T16:09:03;30.00;35.80
80380;DHT22;69690;48.158;17.134;2023-07-20T16:14:06;29.80;36.00
80380;DHT22;69690;48.158;17.134;2023-07-20T16:19:07;29.80;36.10
80380;DHT22;69690;48.158;17.134;2023-07-20T16:24:09;29.70;36.40
80380;DHT22;69690;48.158;17.134;2023-07-20T16:29:11;29.50;36.30
80380;DHT22;69690;48.158;17.134;2023-07-20T16:34:12;29.50;36.50
80380;DHT22;69690;48.158;17.134;2023-07-20T16:39:14;29.30;36.70
80380;DHT22;69690;48.158;17.134;2023-07-20T16:44:18;29.20;36.50
80380;DHT22;69690;48.158;17.134;2023-07-20T16:49:19;29.20;37.20
80380;DHT22;69690;48.158;17.134;2023-07-20T16:54:21;29.10;36.50
80380;DHT22;69690;48.158;17.134;2023-07-20T16:59:22;29.00;37.30
80380;DHT22;69690;48.158;17.134;2023-07-20T17:04:24;29.00;36.70
80380;DHT22;69690;48.158;17.134;2023-07-20T17:09:25;29.10;37.10
80380;DHT22;69690;48.158;17.134;2023-07-20T17:14:28;28.90;36.80
80380;DHT22;69690;48.158;17.134;2023-07-20T17:19:29;28.90;37.00
80380;DHT22;69690;48.158;17.134;2023-07-20T17:24:31;28.70;37.10
80380;DHT22;69690;48.158;17.134;2023-07-20T17:29:32;28.80;37.00
80380;DHT22;69690;48.158;17.134;2023-07-20T17:34:34;28.70;36.80
80380;DHT22;69690;48.158;17.134;2023-07-20T17:39:35;28.70;37.10
80380;DHT22;69690;48.158;17.134;2023-07-20T17:44:37;28.80;37.30
80380;DHT22;69690;48.158;17.134;2023-07-20T17:49:38;28.80;36.70
80380;DHT22;69690;48.158;17.134;2023-07-20T17:54:39;28.80;37.50
80380;DHT22;69690;48.158;17.134;2023-07-20T17:59:41;28.80;37.50
80380;DHT22;69690;48.158;17.134;2023-07-20T18:04:43;28.80;37.50
80380;DHT22;69690;48.158;17.134;2023-07-20T18:09:45;28.70;37.40
80380;DHT22;69690;48.158;17.134;2023-07-20T18:14:46;28.60;37.60
80380;DHT22;69690;48.158;17.134;2023-07-20T18:19:47;28.50;38.50
80380;DHT22;69690;48.158;17.134;2023-07-20T18:24:50;28.50;38.30
80380;DHT22;69690;48.158;17.134;2023-07-20T18:29:51;28.50;38.10
80380;DHT22;69690;48.158;17.134;2023-07-20T18:34:52;28.40;38.50
80380;DHT22;69690;48.158;17.134;2023-07-20T18:39:54;28.20;38.60
80380;DHT22;69690;48.158;17.134;2023-07-20T18:44:56;28.30;39.10
80380;DHT22;69690;48.158;17.134;2023-07-20T18:49:57;27.80;39.50
80380;DHT22;69690;48.158;17.134;2023-07-20T18:54:58;27.30;40.50
80380;DHT22;69690;48.158;17.134;2023-07-20T19:00:01;26.90;41.60
80380;DHT22;69690;48.158;17.134;2023-07-20T19:05:02;26.80;43.40
80380;DHT22;69690;48.158;17.134;2023-07-20T19:10:05;26.60;43.80
80380;DHT22;69690;48.158;17.134;2023-07-20T19:15:07;26.80;43.90
80380;DHT22;69690;48.158;17.134;2023-07-20T19:20:10;26.90;42.70
80380;DHT22;69690;48.158;17.134;2023-07-20T19:25:15;26.90;42.60
80380;DHT22;69690;48.158;17.134;2023-07-20T19:30:16;26.80;43.00
80380;DHT22;69690;48.158;17.134;2023-07-20T19:35:18;26.70;42.90
80380;DHT22;69690;48.158;17.134;2023-07-20T19:40:19;26.80;43.00
80380;DHT22;69690;48.158;17.134;2023-07-20T19:45:20;26.80;42.80
80380;DHT22;69690;48.158;17.134;2023-07-20T19:50:22;26.70;43.00
80380;DHT22;69690;48.158;17.134;2023-07-20T19:55:23;26.60;43.00
80380;DHT22;69690;48.158;17.134;2023-07-20T20:00:24;26.50;43.30
80380;DHT22;69690;48.158;17.134;2023-07-20T20:05:28;26.50;42.70
80380;DHT22;69690;48.158;17.134;2023-07-20T20:10:31;26.40;43.30
80380;DHT22;69690;48.158;17.134;2023-07-20T20:15:33;26.30;42.90
80380;DHT22;69690;48.158;17.134;2023-07-20T20:20:35;26.20;42.80
80380;DHT22;69690;48.158;17.134;2023-07-20T20:25:39;26.10;42.90
80380;DHT22;69690;48.158;17.134;2023-07-20T20:30:40;26.10;43.20
80380;DHT22;69690;48.158;17.134;2023-07-20T20:35:42;25.90;43.40
80380;DHT22;69690;48.158;17.134;2023-07-20T20:40:48;25.80;43.00
80380;DHT22;69690;48.158;17.134;2023-07-20T20:45:52;25.80;43.20
80380;DHT22;69690;48.158;17.134;2023-07-20T20:50:53;25.80;43.00
80380;DHT22;69690;48.158;17.134;2023-07-20T20:55:54;25.70;42.80
80380;DHT22;69690;48.158;17.134;2023-07-20T21:00:59;25.60;42.80
80380;DHT22;69690;48.158;17.134;2023-07-20T21:06:03;25.50;43.30
80380;DHT22;69690;48.158;17.134;2023-07-20T21:11:06;25.50;43.70
80380;DHT22;69690;48.158;17.134;2023-07-20T21:16:08;25.30;44.10
80380;DHT22;69690;48.158;17.134;2023-07-20T21:21:09;25.20;44.20
80380;DHT22;69690;48.158;17.134;2023-07-20T21:26:11;25.20;44.20
80380;DHT22;69690;48.158;17.134;2023-07-20T21:31:12;25.10;44.30
80380;DHT22;69690;48.158;17.134;2023-07-20T21:36:16;25.10;46.10
80380;DHT22;69690;48.158;17.134;2023-07-20T21:41:17;25.20;45.40
80380;DHT22;69690;48.158;17.134;2023-07-20T21:46:19;25.10;44.30
80380;DHT22;69690;48.158;17.134;2023-07-20T21:51:20;25.20;44.80
80380;DHT22;69690;48.158;17.134;2023-07-20T21:56:22;25.10;44.00
80380;DHT22;69690;48.158;17.134;2023-07-20T22:01:23;25.00;44.30
80380;DHT22;69690;48.158;17.134;2023-07-20T22:06:25;25.00;44.90
80380;DHT22;69690;48.158;17.134;2023-07-20T22:11:26;24.80;44.60
80380;DHT22;69690;48.158;17.134;2023-07-20T22:16:28;24.80;44.70
80380;DHT22;69690;48.158;17.134;2023-07-20T22:21:32;24.90;44.40
80380;DHT22;69690;48.158;17.134;2023-07-20T22:26:33;24.90;44.40
80380;DHT22;69690;48.158;17.134;2023-07-20T22:31:35;24.70;44.40
80380;DHT22;69690;48.158;17.134;2023-07-20T22:36:36;24.60;44.90
80380;DHT22;69690;48.158;17.134;2023-07-20T22:41:38;24.60;44.50
80380;DHT22;69690;48.158;17.134;2023-07-20T22:46:39;24.60;44.50
80380;DHT22;69690;48.158;17.134;2023-07-20T22:51:46;24.50;44.90
80380;DHT22;69690;48.158;17.134;2023-07-20T22:56:48;24.40;44.70
80380;DHT22;69690;48.158;17.134;2023-07-20T23:01:49;24.30;45.30
80380;DHT22;69690;48.158;17.134;2023-07-20T23:06:50;24.20;45.60
80380;DHT22;69690;48.158;17.134;2023-07-20T23:11:51;24.20;45.50
80380;DHT22;69690;48.158;17.134;2023-07-20T23:16:53;24.10;45.70
80380;DHT22;69690;48.158;17.134;2023-07-20T23:21:54;24.00;46.30
80380;DHT22;69690;48.158;17.134;2023-07-20T23:26:58;23.90;46.80
80380;DHT22;69690;48.158;17.134;2023-07-20T23:32:00;23.70;46.90
80380;DHT22;69690;48.158;17.134;2023-07-20T23:37:02;23.70;47.30
80380;DHT22;69690;48.158;17.134;2023-07-20T23:42:03;23.50;46.80
80380;DHT22;69690;48.158;17.134;2023-07-20T23:47:04;23.40;47.30
80380;DHT22;69690;48.158;17.134;2023-07-20T23:52:08;23.40;47.60
80380;DHT22;69690;48.158;17.134;2023-07-20T23:57:12;23.40;47.40
